Time;durP1;ratioP1;P1;durP2;ratioP2;P2;SDS_P1;SDS_P2;PMS_P1;PMS_P2;Temp;Humidity;BMP_temperature;BMP_pressure;BME280_temperature;BME280_humidity;BME280_pressure;Samples;Min_cycle;Max_cycle;Signal;HPM_P1;HPM_P2
2021/12/30 00:01:24;;;;;;;;;;;2.30;75.40;;;;;;4979831;28;20053;-85
2021/12/30 00:03:50;;;;;;;214.70;81.90;;;2.40;75.50;;;;;;4978862;28;19905;-85
2021/12/30 00:06:18;;;;;;;211.45;80.95;;;2.30;75.20;;;;;;4978844;28;20036;-84
2021/12/30 00:08:44;;;;;;;217.23;81.50;;;2.40;75.30;;;;;;4979089;28;20026;-85
2021/12/30 00:11:10;;;;;;;211.40;81.57;;;2.30;75.40;;;;;;4978722;28;20031;-85
2021/12/30 00:13:38;;;;;;;;;;;2.40;75.50;;;;;;4979725;28;20077;-83
2021/12/30 00:16:04;;;;;;;214.60;77.53;;;2.40;75.60;;;;;;4978413;28;20009;-83
2021/12/30 00:18:30;;;;;;;;;;;2.40;75.30;;;;;;4979960;28;20474;-83
2021/12/30 00:20:55;;;;;;;188.10;67.13;;;2.40;75.50;;;;;;4978566;28;19909;-84
2021/12/30 00:23:21;;;;;;;189.38;67.53;;;2.40;75.20;;;;;;4979234;28;20026;-83
2021/12/30 00:25:48;;;;;;;192.60;68.38;;;2.40;75.40;;;;;;4979047;28;20027;-84
2021/12/30 00:28:23;;;;;;;199.93;68.73;;;2.30;75.60;;;;;;4978608;28;20060;-85
2021/12/30 00:30:52;;;;;;;184.30;71.57;;;2.30;75.90;;;;;;4983691;28;20077;-83
2021/12/30 00:33:20;;;;;;;209.33;75.60;;;2.30;76.00;;;;;;4998384;28;20046;-84
2021/12/30 00:35:46;;;;;;;201.17;74.63;;;2.30;76.00;;;;;;5017069;28;20030;-84
2021/12/30 00:38:12;;;;;;;;;;;2.30;76.10;;;;;;5001062;28;20481;-85
2021/12/30 00:40:38;;;;;;;189.73;68.90;;;2.40;76.10;;;;;;5014357;28;19984;-85
2021/12/30 00:43:05;;;;;;;207.82;72.80;;;2.40;75.70;;;;;;5007810;28;20046;-85
2021/12/30 00:45:33;;;;;;;204.07;74.17;;;2.40;75.80;;;;;;5007219;28;20026;-85
2021/12/30 00:47:59;;;;;;;208.70;75.40;;;2.40;75.90;;;;;;5016727;28;20026;-86
2021/12/30 00:50:25;;;;;;;183.20;69.30;;;2.40;75.90;;;;;;5017469;28;20033;-84
2021/12/30 00:52:51;;;;;;;183.27;67.70;;;2.40;75.90;;;;;;5033860;28;20042;-86
2021/12/30 00:55:17;;;;;;;;;;;2.40;76.00;;;;;;5016681;28;20033;-84
2021/12/30 00:57:42;;;;;;;192.20;67.47;;;2.40;76.10;;;;;;5012656;28;19910;-84
2021/12/30 01:00:13;;;;;;;198.68;71.28;;;2.40;75.80;;;;;;5010386;28;20034;-84
2021/12/30 01:02:41;;;;;;;175.13;69.67;;;2.30;76.00;;;;;;5015367;28;20024;-85
2021/12/30 01:05:08;;;;;;;193.20;70.07;;;2.30;76.10;;;;;;5016146;28;20025;-84
2021/12/30 01:07:34;;;;;;;194.87;69.23;;;2.30;76.20;;;;;;5009514;28;20462;-85
2021/12/30 01:10:00;;;;;;;;;;;2.30;76.30;;;;;;5001768;28;20033;-84
2021/12/30 01:12:27;;;;;;;179.30;65.70;;;2.30;76.30;;;;;;5018131;28;20362;-85
2021/12/30 01:14:52;;;;;;;191.90;71.70;;;2.30;76.00;;;;;;4999678;28;20037;-84
2021/12/30 01:17:25;;;;;;;;;;;2.30;76.20;;;;;;4999887;28;20034;-84
2021/12/30 01:19:51;;;;;;;191.63;66.87;;;2.30;76.30;;;;;;4997922;28;19949;-85
2021/12/30 01:22:26;;;;;;;;;;;2.30;76.00;;;;;;4998634;28;20093;-84
2021/12/30 01:24:52;;;;;;;188.43;64.80;;;2.30;76.10;;;;;;4997613;28;19913;-87
2021/12/30 01:27:20;;;;;;;195.87;67.40;;;2.30;76.00;;;;;;4997631;28;20037;-85
2021/12/30 01:29:48;;;;;;;192.63;70.17;;;2.30;76.20;;;;;;4996887;28;20037;-84
2021/12/30 01:32:14;;;;;;;197.57;72.07;;;2.20;76.30;;;;;;5014696;28;20073;-85
2021/12/30 01:34:39;;;;;;;;;;;2.30;76.40;;;;;;5015199;28;20402;-85
2021/12/30 01:37:05;;;;;;;182.40;62.83;;;2.30;76.50;;;;;;4997406;28;19909;-86
2021/12/30 01:39:35;;;;;;;180.73;68.30;;;2.30;76.20;;;;;;5014886;28;20037;-85
2021/12/30 01:42:01;;;;;;;190.03;68.53;;;2.30;76.40;;;;;;4997339;28;20451;-84
2021/12/30 01:44:28;;;;;;;;;;;2.40;76.50;;;;;;4997479;28;20066;-84
2021/12/30 01:46:55;;;;;;;198.18;68.18;;;2.30;76.60;;;;;;4996352;28;19909;-85
2021/12/30 01:49:21;;;;;;;195.07;70.20;;;2.40;76.30;;;;;;4997001;28;20072;-85
2021/12/30 01:51:48;;;;;;;194.77;71.50;;;2.40;76.40;;;;;;5014505;28;20426;-85
2021/12/30 01:54:14;;;;;;;190.47;73.93;;;2.40;76.50;;;;;;5013810;28;20379;-85
2021/12/30 01:56:41;;;;;;;192.20;70.93;;;2.50;76.60;;;;;;4997221;28;20026;-85
2021/12/30 01:59:07;;;;;;;188.73;70.47;;;2.40;76.70;;;;;;4996547;28;20029;-84
2021/12/30 02:01:32;;;;;;;;;;;2.40;76.80;;;;;;4997591;28;20034;-85
2021/12/30 02:03:58;;;;;;;178.73;65.63;;;2.30;76.90;;;;;;4999358;28;20358;-85
2021/12/30 02:06:23;;;;;;;;;;;2.30;76.60;;;;;;4997993;28;20053;-85
2021/12/30 02:08:51;;;;;;;174.93;65.47;;;2.20;76.90;;;;;;4996313;28;20250;-85
2021/12/30 02:11:21;;;;;;;186.67;70.57;;;2.10;76.70;;;;;;4996476;28;20561;-85
2021/12/30 02:13:51;;;;;;;213.80;76.40;;;2.10;76.90;;;;;;4996719;28;20418;-85
2021/12/30 02:16:20;;;;;;;198.07;73.13;;;2.00;77.10;;;;;;4996971;28;20363;-85
2021/12/30 02:18:45;;;;;;;208.30;72.33;;;1.90;77.20;;;;;;4997099;28;20018;-85
2021/12/30 02:21:13;;;;;;;;;;;1.80;77.30;;;;;;4996919;28;20121;-85
2021/12/30 02:23:39;;;;;;;184.50;67.23;;;1.80;77.30;;;;;;4996862;28;19917;-85
2021/12/30 02:26:06;;;;;;;;;;;1.80;77.10;;;;;;4997184;28;20022;-85
2021/12/30 02:28:34;;;;;;;181.68;64.75;;;1.70;77.30;;;;;;4996565;28;19967;-85
2021/12/30 02:31:01;;;;;;;185.87;67.47;;;1.60;77.10;;;;;;4996418;28;20084;-86
2021/12/30 02:33:27;;;;;;;195.90;73.23;;;1.60;77.30;;;;;;4996628;28;20033;-85
2021/12/30 02:35:53;;;;;;;;;;;1.60;77.40;;;;;;4997299;28;20026;-85
2021/12/30 02:38:20;;;;;;;183.33;66.53;;;1.60;77.40;;;;;;4996034;28;19917;-84
2021/12/30 02:40:49;;;;;;;203.23;71.70;;;1.60;77.10;;;;;;4999525;28;20014;-86
2021/12/30 02:43:22;;;;;;;196.80;72.13;;;1.60;77.20;;;;;;5000212;28;20385;-84
2021/12/30 02:45:48;;;;;;;202.70;72.37;;;1.50;77.30;;;;;;5000388;28;20030;-85
2021/12/30 02:48:17;;;;;;;206.40;73.30;;;1.60;77.30;;;;;;5017524;28;20108;-85
2021/12/30 02:50:44;;;;;;;211.97;74.47;;;1.60;77.30;;;;;;5000569;28;20034;-85
2021/12/30 02:53:11;;;;;;;203.20;72.80;;;1.50;77.30;;;;;;5000029;28;20474;-84
2021/12/30 02:55:37;;;;;;;201.77;71.63;;;1.50;77.30;;;;;;5000601;28;20485;-84
2021/12/30 02:58:02;;;;;;;;;;;1.40;77.40;;;;;;5000980;28;20025;-83
2021/12/30 03:00:29;;;;;;;192.90;68.07;;;1.40;77.40;;;;;;5000605;28;19975;-84
2021/12/30 03:02:56;;;;;;;205.97;72.23;;;1.30;77.20;;;;;;5000708;28;20034;-84
2021/12/30 03:05:24;;;;;;;197.47;72.53;;;1.20;77.30;;;;;;5000054;28;20033;-84
2021/12/30 03:07:52;;;;;;;229.07;81.87;;;1.10;77.50;;;;;;5017995;28;20034;-85
2021/12/30 03:10:22;;;;;;;226.03;80.23;;;1.00;77.60;;;;;;5000196;28;20026;-84
2021/12/30 03:12:53;;;;;;;247.53;83.80;;;1.00;77.60;;;;;;4999318;28;20112;-84
2021/12/30 03:15:19;;;;;;;240.27;81.23;;;0.90;77.70;;;;;;4999217;28;20510;-84
2021/12/30 03:17:45;;;;;;;252.10;85.50;;;0.80;77.80;;;;;;4999611;28;20022;-84
2021/12/30 03:20:11;;;;;;;;;;;0.80;77.80;;;;;;5000312;28;20072;-84
2021/12/30 03:22:38;;;;;;;231.47;78.20;;;0.80;77.80;;;;;;4999676;28;19913;-84
2021/12/30 03:25:07;;;;;;;236.27;82.27;;;0.80;77.60;;;;;;4999850;28;20466;-84
2021/12/30 03:27:32;;;;;;;216.27;78.90;;;0.70;77.70;;;;;;4999341;28;20068;-84
2021/12/30 03:29:58;;;;;;;;;;;0.70;77.80;;;;;;4993129;28;20478;-84
2021/12/30 03:32:24;;;;;;;246.80;84.37;;;0.80;77.90;;;;;;4999730;28;19917;-85
2021/12/30 03:34:49;;;;;;;;;;;0.80;77.50;;;;;;5000060;28;20022;-84
2021/12/30 03:37:17;;;;;;;208.53;75.47;;;0.90;77.60;;;;;;4999893;28;19936;-85
2021/12/30 03:39:44;;;;;;;237.87;86.30;;;1.00;77.20;;;;;;4999450;28;20104;-85
2021/12/30 03:42:10;;;;;;;237.27;85.67;;;1.10;77.20;;;;;;4999506;28;20026;-84
2021/12/30 03:44:35;;;;;;;;;;;1.10;77.20;;;;;;5000038;28;20500;-85
2021/12/30 03:47:01;;;;;;;238.67;82.87;;;1.20;77.20;;;;;;4999560;28;19968;-85
2021/12/30 03:49:26;;;;;;;;;;;1.30;76.80;;;;;;5000429;28;20376;-85
2021/12/30 03:51:53;;;;;;;212.30;77.80;;;1.30;77.00;;;;;;4997004;28;20037;-85
2021/12/30 03:54:19;;;;;;;220.07;79.53;;;1.40;76.70;;;;;;4999555;28;20069;-85
2021/12/30 03:56:45;;;;;;;;;;;1.50;76.80;;;;;;4998932;28;20425;-85
2021/12/30 03:59:10;;;;;;;216.07;76.77;;;1.50;76.80;;;;;;4998834;28;20004;-84
2021/12/30 04:01:36;;;;;;;;;;;1.60;76.50;;;;;;4999089;28;20541;-85
2021/12/30 04:04:02;;;;;;;223.17;82.27;;;1.70;76.60;;;;;;4998132;28;19963;-85
2021/12/30 04:06:28;;;;;;;228.30;79.40;;;1.80;76.40;;;;;;4998427;28;20118;-86
2021/12/30 04:08:54;;;;;;;;;;;1.80;76.50;;;;;;4998592;28;20034;-86
2021/12/30 04:11:25;;;;;;;196.87;68.90;;;1.80;76.60;;;;;;4998966;28;19909;-85
2021/12/30 04:13:51;;;;;;;209.00;78.73;;;1.80;76.30;;;;;;5015943;28;20060;-85
2021/12/30 04:16:19;;;;;;;221.50;80.20;;;1.60;76.50;;;;;;4998940;28;20029;-85
2021/12/30 04:18:48;;;;;;;232.67;85.07;;;1.50;76.80;;;;;;5016365;28;20041;-85
2021/12/30 04:21:17;;;;;;;223.47;79.83;;;1.50;77.00;;;;;;5016650;28;20022;-85
2021/12/30 04:23:44;;;;;;;236.20;86.57;;;1.40;77.20;;;;;;4999314;28;20037;-83
2021/12/30 04:26:09;;;;;;;246.70;86.43;;;1.40;77.30;;;;;;4997822;28;20023;-85
2021/12/30 04:28:35;;;;;;;;;;;1.50;77.30;;;;;;4999493;28;20029;-84
2021/12/30 04:31:01;;;;;;;226.20;82.10;;;1.60;77.40;;;;;;5011036;28;19920;-85
2021/12/30 04:33:26;;;;;;;;;;;1.70;77.00;;;;;;4977590;28;20030;-84
2021/12/30 04:35:56;;;;;;;206.50;74.07;;;1.70;77.00;;;;;;4978403;28;19917;-83
2021/12/30 04:38:26;;;;;;;221.10;79.33;;;1.80;76.70;;;;;;4976811;28;20077;-83
2021/12/30 04:40:52;;;;;;;215.57;78.07;;;1.80;76.70;;;;;;4979667;28;20074;-84
2021/12/30 04:43:17;;;;;;;;;;;1.80;76.80;;;;;;4976515;28;20423;-85
2021/12/30 04:45:44;;;;;;;203.60;76.40;;;1.90;76.80;;;;;;4973458;28;19910;-84
2021/12/30 04:48:10;;;;;;;215.70;80.23;;;1.90;76.50;;;;;;4978960;28;20023;-85
2021/12/30 04:50:36;;;;;;;;;;;2.00;76.60;;;;;;4978676;28;20372;-85
2021/12/30 04:53:02;;;;;;;205.20;75.87;;;2.00;76.70;;;;;;4995836;28;20388;-85
2021/12/30 04:55:28;;;;;;;189.37;73.10;;;2.10;76.40;;;;;;4978235;28;20023;-84
2021/12/30 04:57:54;;;;;;;;;;;2.10;76.50;;;;;;4996507;28;20034;-84
2021/12/30 05:00:19;;;;;;;186.57;71.63;;;2.10;76.60;;;;;;4978456;28;20004;-84
2021/12/30 05:03:07;;;;;;;188.63;70.95;;;2.10;76.30;;;;;;4995997;28;20101;-85
2021/12/30 05:05:41;;;;;;;185.17;70.67;;;2.20;76.40;;;;;;4992795;28;20027;-85
2021/12/30 05:08:07;;;;;;;177.27;70.23;;;2.20;76.40;;;;;;4991022;28;20102;-85
2021/12/30 05:10:34;;;;;;;185.40;71.67;;;2.20;76.40;;;;;;4997204;28;20030;-85
2021/12/30 05:13:01;;;;;;;191.13;73.23;;;2.30;76.50;;;;;;4998790;28;20042;-85
2021/12/30 05:15:27;;;;;;;174.83;70.10;;;2.30;76.50;;;;;;4992070;28;20028;-85
2021/12/30 05:17:52;;;;;;;;;;;2.30;76.50;;;;;;4994747;28;20034;-85
2021/12/30 05:20:21;;;;;;;175.60;65.00;;;2.40;76.60;;;;;;4998859;28;19917;-85
2021/12/30 05:22:47;;;;;;;185.37;68.73;;;2.40;76.20;;;;;;4991981;28;20045;-84
2021/12/30 05:25:15;;;;;;;;;;;2.40;76.30;;;;;;4994126;28;20475;-83
2021/12/30 05:27:41;;;;;;;172.80;64.70;;;2.50;76.40;;;;;;5025217;28;19941;-83
2021/12/30 05:30:09;;;;;;;171.53;67.97;;;2.50;76.10;;;;;;4992643;28;20032;-84
2021/12/30 05:32:35;;;;;;;168.60;67.40;;;2.50;76.20;;;;;;5008148;28;20065;-85
2021/12/30 05:35:01;;;;;;;;;;;2.40;76.30;;;;;;5020185;28;20030;-85
2021/12/30 05:37:27;;;;;;;124.18;47.95;;;2.40;76.30;;;;;;4999742;28;19913;-85
2021/12/30 05:39:52;;;;;;;;;;;2.40;76.20;;;;;;4999334;28;20037;-85
2021/12/30 05:42:22;;;;;;;177.87;66.00;;;2.30;76.30;;;;;;5012822;28;19917;-85
2021/12/30 05:44:50;;;;;;;179.23;66.33;;;2.20;76.30;;;;;;4997529;28;20041;-84
2021/12/30 05:47:15;;;;;;;210.53;74.80;;;2.00;76.50;;;;;;4997783;28;20463;-85
2021/12/30 05:49:41;;;;;;;;;;;1.80;76.80;;;;;;4997969;28;20083;-85
2021/12/30 05:52:06;;;;;;;199.00;73.47;;;1.80;77.00;;;;;;4997684;28;20007;-85
2021/12/30 05:54:35;;;;;;;208.93;77.45;;;1.70;76.90;;;;;;4997749;28;20438;-84
2021/12/30 05:57:00;;;;;;;223.33;76.73;;;1.60;77.10;;;;;;4997995;28;20359;-84
2021/12/30 05:59:26;;;;;;;;;;;1.50;77.30;;;;;;4996605;28;20050;-85
2021/12/30 06:01:51;;;;;;;210.00;69.30;;;1.50;77.40;;;;;;5014278;28;19920;-85
2021/12/30 06:04:17;;;;;;;199.63;72.80;;;1.50;77.20;;;;;;4996315;28;20382;-84
2021/12/30 06:06:42;;;;;;;;;;;1.50;77.30;;;;;;5014388;28;20116;-85
2021/12/30 06:09:08;;;;;;;174.43;65.63;;;1.50;77.40;;;;;;4996259;28;20304;-85
2021/12/30 06:11:34;;;;;;;193.15;70.05;;;1.60;77.10;;;;;;4996843;28;20037;-84
2021/12/30 06:13:59;;;;;;;179.85;68.22;;;1.60;77.10;;;;;;4995658;28;20033;-84
2021/12/30 06:16:25;;;;;;;;;;;1.60;77.10;;;;;;4996391;28;20021;-85
2021/12/30 06:18:51;;;;;;;157.43;58.57;;;1.70;77.10;;;;;;4995313;28;20025;-84
2021/12/30 06:21:16;;;;;;;162.00;60.25;;;1.80;76.70;;;;;;4996491;28;20025;-85
2021/12/30 06:23:42;;;;;;;;;;;1.80;76.80;;;;;;5014776;28;20037;-85
2021/12/30 06:26:07;;;;;;;151.93;56.40;;;1.80;76.90;;;;;;4996629;28;19916;-85
2021/12/30 06:28:33;;;;;;;;;;;1.90;76.60;;;;;;4996841;28;20053;-85
2021/12/30 06:30:58;;;;;;;165.03;59.77;;;1.90;76.70;;;;;;4996570;28;19953;-85
2021/12/30 06:33:24;;;;;;;172.73;61.95;;;2.00;76.50;;;;;;4996745;28;20030;-83
2021/12/30 06:35:49;;;;;;;;;;;2.00;76.60;;;;;;4996459;28;20022;-85
2021/12/30 06:38:15;;;;;;;151.07;56.63;;;2.10;76.80;;;;;;4995762;28;20013;-85
2021/12/30 06:40:40;;;;;;;172.13;62.35;;;2.10;76.40;;;;;;4996553;28;20470;-84
2021/12/30 06:43:08;;;;;;;;;;;2.10;76.60;;;;;;5014428;28;20108;-85
2021/12/30 06:45:33;;;;;;;157.35;57.50;;;2.20;76.70;;;;;;4997501;28;19996;-86
2021/12/30 06:48:05;;;;;;;;;;;2.30;76.50;;;;;;4997565;28;20034;-83
2021/12/30 06:50:32;;;;;;;163.63;61.57;;;2.30;76.60;;;;;;5012275;28;20358;-84
2021/12/30 06:52:58;;;;;;;165.53;67.80;;;2.40;76.40;;;;;;4998885;28;20121;-91
2021/12/30 06:55:23;;;;;;;;;;;2.40;76.50;;;;;;4997363;28;20478;-85
2021/12/30 06:57:49;;;;;;;164.00;64.73;;;2.40;76.70;;;;;;5012706;28;20251;-85
2021/12/30 07:00:15;;;;;;;;;;;2.50;76.40;;;;;;4997608;28;20093;-86
2021/12/30 07:02:43;;;;;;;180.53;64.30;;;2.60;76.50;;;;;;5007481;28;19913;-86
2021/12/30 07:05:08;;;;;;;167.93;65.07;;;2.60;76.20;;;;;;5012741;28;20532;-84
2021/12/30 07:07:34;;;;;;;;;;;2.60;76.40;;;;;;4996284;28;20026;-85
2021/12/30 07:10:00;;;;;;;171.67;66.27;;;2.70;76.50;;;;;;4996337;28;20377;-85
2021/12/30 07:12:26;;;;;;;;;;;2.80;76.10;;;;;;4995581;28;20513;-85
2021/12/30 07:14:51;;;;;;;160.33;63.20;;;2.80;76.30;;;;;;4996939;28;19910;-89
2021/12/30 07:17:17;;;;;;;162.30;65.25;;;2.80;76.00;;;;;;5014053;28;20101;-86
2021/12/30 07:19:42;;;;;;;;;;;2.90;76.20;;;;;;4997960;28;20018;-87
2021/12/30 07:22:08;;;;;;;164.70;63.60;;;2.90;76.30;;;;;;4999372;28;19909;-89
2021/12/30 07:24:36;;;;;;;172.00;65.82;;;2.90;76.00;;;;;;5000102;28;20394;-89
2021/12/30 07:27:02;;;;;;;157.00;65.60;;;3.00;76.10;;;;;;5002342;28;20104;-90
2021/12/30 07:29:27;;;;;;;;;;;3.00;76.20;;;;;;5020129;28;20030;-89
2021/12/30 07:31:53;;;;;;;159.83;61.67;;;3.10;76.30;;;;;;5019174;28;19924;-89
2021/12/30 07:34:18;;;;;;;174.00;63.33;;;3.20;76.00;;;;;;5002349;28;20052;-89
2021/12/30 07:36:44;;;;;;;;;;;3.20;76.10;;;;;;5002450;28;20121;-89
2021/12/30 07:39:10;;;;;;;162.87;61.73;;;3.20;76.20;;;;;;5002098;28;19916;-89
2021/12/30 07:41:35;;;;;;;;;;;3.30;76.00;;;;;;5001721;28;20523;-90
2021/12/30 07:44:01;;;;;;;174.93;65.03;;;3.30;76.10;;;;;;5001670;28;19917;-90
2021/12/30 07:46:26;;;;;;;;;;;3.30;75.80;;;;;;5003212;28;20052;-90
2021/12/30 07:48:52;;;;;;;195.40;67.77;;;3.40;76.00;;;;;;5001595;28;19913;-88
2021/12/30 07:51:18;;;;;;;173.68;69.00;;;3.40;75.80;;;;;;5001538;28;20025;-89
2021/12/30 07:53:43;;;;;;;;;;;3.30;76.00;;;;;;5000837;28;20070;-89
2021/12/30 07:56:09;;;;;;;159.03;63.07;;;3.20;76.20;;;;;;5000116;28;19929;-90
2021/12/30 07:58:35;;;;;;;175.50;71.22;;;3.20;76.20;;;;;;5019607;28;20030;-90
2021/12/30 08:01:01;;;;;;;190.00;71.55;;;3.10;76.50;;;;;;5001461;28;20021;-89
2021/12/30 08:03:27;;;;;;;203.60;74.60;;;3.10;76.70;;;;;;5002088;28;20041;-89
2021/12/30 08:05:52;;;;;;;;;;;3.10;76.70;;;;;;5001216;28;20033;-90
2021/12/30 08:08:18;;;;;;;185.00;74.93;;;3.10;76.80;;;;;;5000706;28;19947;-89
2021/12/30 08:10:44;;;;;;;;;;;3.10;76.60;;;;;;5001664;28;20049;-89
2021/12/30 08:13:09;;;;;;;186.30;70.03;;;3.00;76.70;;;;;;5018088;28;19914;-89
2021/12/30 08:15:35;;;;;;;178.93;72.90;;;3.00;76.60;;;;;;5001769;28;20029;-89
2021/12/30 08:18:01;;;;;;;;;;;3.00;76.80;;;;;;5001029;28;20072;-89
2021/12/30 08:20:27;;;;;;;189.80;74.53;;;3.00;76.90;;;;;;5001106;28;19909;-89
2021/12/30 08:22:53;;;;;;;202.43;82.93;;;3.10;76.70;;;;;;5001863;28;20509;-88
2021/12/30 08:25:20;;;;;;;212.63;85.27;;;3.00;76.90;;;;;;5002516;28;20026;-90
2021/12/30 08:27:46;;;;;;;211.03;86.37;;;3.10;77.00;;;;;;4994858;28;20414;-90
2021/12/30 08:30:15;;;;;;;215.00;88.40;;;3.10;77.10;;;;;;5001843;28;20034;-90
2021/12/30 08:32:42;;;;;;;216.27;88.60;;;3.10;77.10;;;;;;5000189;28;20038;-89
2021/12/30 08:35:09;;;;;;;228.40;90.20;;;3.10;77.20;;;;;;5018925;28;20018;-89
2021/12/30 08:37:35;;;;;;;203.07;89.07;;;3.20;77.20;;;;;;5015095;28;20057;-89
2021/12/30 08:40:02;;;;;;;;;;;3.20;77.20;;;;;;5001256;28;20036;-89
2021/12/30 08:42:29;;;;;;;;;;;3.30;77.30;;;;;;4993819;28;19948;-89
2021/12/30 08:44:57;;;;;;;182.10;73.05;;;3.40;77.00;;;;;;5002037;28;19916;-89
2021/12/30 08:47:23;;;;;;;175.70;77.10;;;3.50;76.80;;;;;;5001658;28;20095;-87
2021/12/30 08:49:49;;;;;;;162.77;70.23;;;3.60;76.90;;;;;;5002029;28;20112;-88
2021/12/30 08:52:16;;;;;;;;;;;3.80;76.80;;;;;;5016318;28;20049;-84
2021/12/30 08:54:42;;;;;;;;;;;4.10;76.70;;;;;;5002572;28;19960;-95
2021/12/30 08:57:09;;;;;;;174.37;71.40;;;4.30;76.20;;;;;;5006171;28;19913;-88
2021/12/30 08:59:35;;;;;;;169.10;72.93;;;4.40;75.80;;;;;;5004478;28;20036;-94
2021/12/30 09:02:01;;;;;;;;;;;4.60;75.80;;;;;;5002466;28;20076;-88
2021/12/30 09:04:44;;;;;;;147.43;65.15;;;4.80;75.80;;;;;;5002144;28;19909;-87
2021/12/30 09:07:10;;;;;;;155.70;64.33;;;4.90;75.30;;;;;;5018557;28;20028;-88
2021/12/30 09:09:48;;;;;;;;;;;5.00;75.20;;;;;;5004051;28;20085;-87
2021/12/30 09:12:14;;;;;;;134.73;56.93;;;5.20;75.20;;;;;;5001719;28;19968;-87
2021/12/30 09:14:42;;;;;;;;;;;5.30;74.80;;;;;;5000742;28;20033;-88
2021/12/30 09:17:08;;;;;;;127.97;55.67;;;5.40;74.80;;;;;;4999814;28;19977;-90
2021/12/30 09:19:33;;;;;;;;;;;5.60;74.50;;;;;;5003292;28;20057;-90
2021/12/30 09:21:59;;;;;;;137.70;65.47;;;5.60;74.70;;;;;;5002121;28;19915;-89
2021/12/30 09:24:25;;;;;;;142.57;65.55;;;5.70;74.40;;;;;;5002352;28;20033;-90
2021/12/30 09:26:50;;;;;;;;;;;5.80;74.40;;;;;;5002562;28;20036;-90
2021/12/30 09:29:16;;;;;;;109.93;50.77;;;5.80;74.40;;;;;;5002290;28;19913;-90
2021/12/30 09:31:47;;;;;;;;;;;5.90;74.20;;;;;;5003414;28;20058;-89
2021/12/30 09:34:13;;;;;;;121.57;55.03;;;5.90;74.30;;;;;;5019311;28;19913;-89
2021/12/30 09:36:39;;;;;;;121.10;55.57;;;6.00;74.10;;;;;;5002551;28;20021;-90
2021/12/30 09:39:07;;;;;;;;;;;6.00;74.10;;;;;;5007849;28;20033;-89
2021/12/30 09:41:34;;;;;;;118.63;54.13;;;6.10;74.00;;;;;;5014822;28;19953;-89
2021/12/30 09:44:01;;;;;;;128.10;59.50;;;6.20;73.80;;;;;;5018609;28;20002;-89
2021/12/30 09:46:28;;;;;;;139.80;65.43;;;6.20;73.70;;;;;;5018863;28;20070;-88
2021/12/30 09:48:53;;;;;;;130.17;61.63;;;6.20;73.60;;;;;;5017613;28;20119;-89
2021/12/30 09:51:21;;;;;;;;;;;6.20;73.60;;;;;;5018923;28;20037;-90
2021/12/30 09:53:50;;;;;;;142.82;66.03;;;6.30;73.70;;;;;;5037132;28;19965;-91
2021/12/30 09:56:18;;;;;;;137.00;63.63;;;6.30;73.40;;;;;;5020236;28;20033;-86
2021/12/30 09:58:43;;;;;;;132.17;60.47;;;6.40;73.30;;;;;;5020808;28;20064;-87
2021/12/30 10:01:09;;;;;;;;;;;6.40;73.20;;;;;;5020807;28;20010;-87
2021/12/30 10:03:37;;;;;;;129.23;62.97;;;6.40;73.20;;;;;;5037080;28;19902;-86
2021/12/30 10:06:08;;;;;;;128.17;60.37;;;6.50;72.90;;;;;;5011521;28;20486;-85
2021/12/30 10:08:42;;;;;;;121.50;59.80;;;6.50;72.80;;;;;;5001719;28;20030;-87
2021/12/30 10:11:14;;;;;;;144.43;66.53;;;6.50;72.80;;;;;;5001650;28;20058;-87
2021/12/30 10:13:52;;;;;;;245.00;102.77;;;6.60;72.70;;;;;;5000617;28;20030;-88
2021/12/30 10:16:18;;;;;;;143.27;66.73;;;6.60;72.50;;;;;;5000470;28;20017;-86
2021/12/30 10:18:50;;;;;;;;;;;6.70;72.50;;;;;;4999855;28;20137;-86
2021/12/30 10:21:20;;;;;;;119.97;59.00;;;6.80;72.50;;;;;;5016180;28;19916;-86
2021/12/30 10:23:49;;;;;;;187.27;76.17;;;6.90;72.00;;;;;;4998528;28;20018;-86
2021/12/30 10:26:16;;;;;;;110.97;56.47;;;7.00;71.90;;;;;;4997994;28;20013;-86
2021/12/30 10:28:43;;;;;;;139.07;69.43;;;7.00;71.80;;;;;;4998059;28;20018;-86
2021/12/30 10:31:12;;;;;;;115.67;55.37;;;7.10;71.80;;;;;;5015770;28;20034;-86
2021/12/30 10:33:54;;;;;;;117.27;56.33;;;7.10;71.80;;;;;;4997290;28;20034;-86
2021/12/30 10:36:30;;;;;;;108.00;54.00;;;7.10;71.80;;;;;;4998133;28;20034;-85
2021/12/30 10:39:23;;;;;;;104.03;50.23;;;7.20;71.80;;;;;;4997663;28;20096;-85
2021/12/30 10:41:51;;;;;;;99.43;48.90;;;7.20;71.80;;;;;;4995937;28;20034;-86
2021/12/30 10:44:17;;;;;;;96.67;49.90;;;7.30;71.80;;;;;;4997696;28;20026;-85
2021/12/30 10:46:43;;;;;;;106.87;50.07;;;7.30;71.70;;;;;;4997364;28;20037;-85
2021/12/30 10:49:18;;;;;;;;;;;7.30;71.80;;;;;;4998300;28;20494;-86
2021/12/30 10:51:49;;;;;;;100.33;50.50;;;7.30;71.80;;;;;;4997373;28;19968;-86
2021/12/30 10:54:17;;;;;;;117.73;59.03;;;7.30;71.70;;;;;;4994560;28;20022;-86
2021/12/30 10:57:05;;;;;;;107.07;56.13;;;7.20;71.90;;;;;;4998379;28;20037;-86
2021/12/30 10:59:41;;;;;;;118.80;55.58;;;7.20;72.10;;;;;;4996850;28;20053;-86
2021/12/30 11:02:20;;;;;;;87.32;41.78;;;7.10;72.20;;;;;;5003477;28;20044;-87
2021/12/30 11:04:49;;;;;;;118.90;58.47;;;7.10;72.40;;;;;;5001709;28;20482;-87
2021/12/30 11:07:19;;;;;;;110.10;57.57;;;7.00;72.50;;;;;;5000804;28;20045;-87
2021/12/30 11:10:11;;;;;;;125.13;61.97;;;7.00;72.70;;;;;;5001189;28;20053;-86
2021/12/30 11:12:41;;;;;;;128.73;59.07;;;6.90;73.00;;;;;;4997441;28;20463;-86
2021/12/30 11:15:25;;;;;;;131.13;60.27;;;6.90;73.00;;;;;;5000850;28;20375;-86
2021/12/30 11:18:11;;;;;;;141.47;64.80;;;6.80;73.30;;;;;;5000580;28;20021;-86
2021/12/30 11:20:47;;;;;;;140.53;66.13;;;6.80;73.40;;;;;;4999586;28;20034;-86
2021/12/30 11:23:16;;;;;;;141.43;68.60;;;6.80;73.50;;;;;;5000037;28;20037;-86
2021/12/30 11:25:42;;;;;;;138.30;65.47;;;6.80;73.60;;;;;;5018768;28;20030;-86
2021/12/30 11:28:08;;;;;;;152.17;70.83;;;6.70;73.80;;;;;;5000798;28;20109;-86
2021/12/30 11:30:34;;;;;;;;;;;6.70;73.90;;;;;;5001516;28;20061;-87
2021/12/30 11:33:02;;;;;;;159.53;76.13;;;6.80;73.90;;;;;;5000255;28;19929;-86
2021/12/30 11:35:28;;;;;;;157.73;73.77;;;6.80;73.70;;;;;;4999465;28;20513;-85
2021/12/30 11:37:54;;;;;;;;;;;6.80;73.80;;;;;;5000707;28;20100;-86
2021/12/30 11:40:24;;;;;;;149.77;73.23;;;6.80;73.90;;;;;;5000362;28;19916;-86
2021/12/30 11:43:07;;;;;;;119.63;59.13;;;6.80;73.70;;;;;;5000382;28;20034;-86
2021/12/30 11:45:41;;;;;;;120.40;58.07;;;6.90;73.90;;;;;;4999275;28;20441;-86
2021/12/30 11:48:24;;;;;;;130.27;61.77;;;6.80;74.00;;;;;;5000461;28;20177;-86
2021/12/30 11:51:11;;;;;;;128.20;62.03;;;6.80;74.20;;;;;;5017813;28;20018;-86
2021/12/30 11:53:40;;;;;;;136.63;64.27;;;6.90;74.30;;;;;;4998796;28;20164;-86
2021/12/30 11:56:14;;;;;;;128.07;63.23;;;6.90;74.40;;;;;;5017712;28;20466;-86
2021/12/30 11:58:45;;;;;;;136.90;67.83;;;6.90;74.60;;;;;;4999491;28;21674;-86
2021/12/30 12:01:10;;;;;;;145.73;68.27;;;6.90;74.70;;;;;;4999461;28;20022;-86
2021/12/30 12:03:55;;;;;;;;;;;6.90;74.70;;;;;;5000267;28;20398;-87
2021/12/30 12:06:43;;;;;;;123.90;59.63;;;7.00;74.80;;;;;;5012750;28;20393;-86
2021/12/30 12:09:22;;;;;;;123.13;61.53;;;7.00;74.60;;;;;;4997954;28;20026;-86
2021/12/30 12:12:06;;;;;;;131.13;57.53;;;7.10;74.70;;;;;;4998853;28;20048;-86
2021/12/30 12:14:39;;;;;;;150.33;70.43;;;7.10;74.90;;;;;;5014651;28;20505;-86
2021/12/30 12:17:19;;;;;;;187.43;79.25;;;7.10;74.90;;;;;;5005182;28;20387;-87
2021/12/30 12:19:53;;;;;;;295.73;110.43;;;7.20;74.90;;;;;;5000640;28;20474;-85
2021/12/30 12:22:19;;;;;;;194.27;83.47;;;7.20;75.10;;;;;;5000320;28;20037;-84
2021/12/30 12:24:45;;;;;;;;;;;7.10;75.20;;;;;;4999641;28;20386;-86
2021/12/30 12:27:33;;;;;;;113.80;51.77;;;7.10;75.30;;;;;;5000242;28;20369;-85
2021/12/30 12:30:00;;;;;;;96.30;45.57;;;7.20;75.30;;;;;;5018297;28;20033;-86
2021/12/30 12:32:34;;;;;;;93.77;46.67;;;7.20;75.20;;;;;;4999971;28;20108;-87
2021/12/30 12:35:03;;;;;;;83.57;41.47;;;7.20;75.40;;;;;;4999528;28;20054;-87
2021/12/30 12:37:32;;;;;;;80.90;40.37;;;7.20;75.50;;;;;;4999831;28;20068;-86
2021/12/30 12:40:32;;;;;;;74.17;37.80;;;7.30;75.70;;;;;;4999772;28;20497;-87
2021/12/30 12:43:25;;;;;;;72.23;35.93;;;7.30;75.90;;;;;;5003616;28;20065;-86
2021/12/30 12:45:59;;;;;;;67.25;34.92;;;7.40;75.90;;;;;;4990535;28;20026;-87
2021/12/30 12:48:27;;;;;;;70.43;32.73;;;7.50;75.70;;;;;;4999883;28;20475;-85
2021/12/30 12:50:53;;;;;;;65.72;32.30;;;7.50;75.80;;;;;;4996217;28;20470;-86
2021/12/30 12:53:20;;;;;;;;;;;7.60;75.80;;;;;;5000152;28;20057;-87
2021/12/30 12:55:46;;;;;;;59.75;30.77;;;7.60;75.80;;;;;;4999701;28;19909;-87
2021/12/30 12:58:11;;;;;;;;;;;7.70;75.50;;;;;;5001138;28;20021;-87